Time;durP1;ratioP1;P1;durP2;ratioP2;P2;SDS_P1;SDS_P2;PMS_P1;PMS_P2;Temp;Humidity;BMP_temperature;BMP_pressure;BME280_temperature;BME280_humidity;BME280_pressure;Samples;Min_cycle;Max_cycle;Signal;HPM_P1;HPM_P2
2023/07/23 00:00:06;;;;;;;14.63;10.00;;;;;;;;;;5071462;28;20024;-69
2023/07/23 00:02:31;;;;;;;12.75;11.10;;;;;;;;;;5070100;28;20083;-70
2023/07/23 00:04:56;;;;;;;16.38;10.40;;;;;;;;;;5071757;28;20479;-69
2023/07/23 00:07:21;;;;;;;16.33;11.63;;;;;;;;;;5069861;28;20041;-68
2023/07/23 00:09:46;;;;;;;17.23;11.07;;;;;;;;;;5071427;28;20442;-69
2023/07/23 00:12:11;;;;;;;16.65;11.52;;;;;;;;;;5069669;28;20035;-68
2023/07/23 00:14:36;;;;;;;27.13;16.47;;;;;;;;;;5071163;28;20020;-69
2023/07/23 00:17:02;;;;;;;21.15;16.80;;;;;;;;;;5069999;28;20055;-69
2023/07/23 00:19:27;;;;;;;25.65;19.35;;;;;;;;;;5071695;28;20061;-69
2023/07/23 00:21:53;;;;;;;25.13;18.83;;;;;;;;;;5061182;28;20148;-70
2023/07/23 00:24:21;;;;;;;21.30;18.10;;;;;;;;;;5051225;28;20049;-70
2023/07/23 00:26:46;;;;;;;22.75;17.83;;;;;;;;;;5057213;28;20055;-70
2023/07/23 00:29:11;;;;;;;29.35;16.58;;;;;;;;;;5070649;28;20399;-70
2023/07/23 00:31:37;;;;;;;25.90;16.42;;;;;;;;;;5069725;28;20029;-71
2023/07/23 00:34:03;;;;;;;22.30;16.33;;;;;;;;;;5070983;28;20027;-69
2023/07/23 00:36:28;;;;;;;20.17;15.00;;;;;;;;;;5069116;28;20407;-70
2023/07/23 00:38:53;;;;;;;15.93;12.75;;;;;;;;;;5071115;28;20032;-70
2023/07/23 00:41:18;;;;;;;20.13;12.53;;;;;;;;;;5069515;28;20526;-70
2023/07/23 00:43:43;;;;;;;20.63;11.53;;;;;;;;;;5070509;28;20023;-70
2023/07/23 00:46:09;;;;;;;13.30;11.70;;;;;;;;;;5067659;28;20055;-70
2023/07/23 00:48:34;;;;;;;14.93;13.07;;;;;;;;;;5071294;28;20029;-70
2023/07/23 00:51:00;;;;;;;18.10;10.90;;;;;;;;;;5068813;28;20044;-67
2023/07/23 00:53:25;;;;;;;15.27;10.88;;;;;;;;;;5071140;28;20087;-68
2023/07/23 00:55:51;;;;;;;14.85;12.23;;;;;;;;;;5070432;28;20074;-68
2023/07/23 00:58:16;;;;;;;15.10;11.52;;;;;;;;;;5069021;28;20377;-68
2023/07/23 01:00:41;;;;;;;15.83;13.90;;;;;;;;;;5070902;28;20368;-68
2023/07/23 01:03:06;;;;;;;19.27;11.27;;;;;;;;;;5069105;28;20083;-68
2023/07/23 01:05:32;;;;;;;32.53;14.20;;;;;;;;;;5070302;28;20525;-68
2023/07/23 01:07:58;;;;;;;20.67;13.07;;;;;;;;;;5069378;28;20033;-68
2023/07/23 01:10:23;;;;;;;16.70;12.82;;;;;;;;;;5070581;28;20027;-74
2023/07/23 01:12:48;;;;;;;15.05;12.80;;;;;;;;;;5068923;28;20033;-67
2023/07/23 01:15:14;;;;;;;16.52;11.70;;;;;;;;;;5070767;28;20024;-68
2023/07/23 01:17:40;;;;;;;19.52;11.52;;;;;;;;;;5069351;28;20115;-67
2023/07/23 01:20:06;;;;;;;15.80;12.95;;;;;;;;;;5069686;28;20024;-67
2023/07/23 01:22:35;;;;;;;13.25;11.13;;;;;;;;;;5069114;28;20048;-67
2023/07/23 01:25:00;;;;;;;15.68;11.98;;;;;;;;;;5070340;28;20527;-67
2023/07/23 01:27:26;;;;;;;13.05;11.07;;;;;;;;;;5068819;28;20124;-67
2023/07/23 01:29:51;;;;;;;15.55;13.45;;;;;;;;;;5070878;28;20020;-68
2023/07/23 01:32:16;;;;;;;15.70;12.47;;;;;;;;;;5068815;28;20107;-68
2023/07/23 01:34:41;;;;;;;19.60;13.27;;;;;;;;;;5070190;28;20036;-68
2023/07/23 01:37:08;;;;;;;14.98;12.35;;;;;;;;;;5068909;28;20045;-68
2023/07/23 01:39:35;;;;;;;14.43;9.90;;;;;;;;;;5070693;28;20448;-69
2023/07/23 01:42:00;;;;;;;15.85;12.20;;;;;;;;;;5068336;28;20061;-69
2023/07/23 01:44:25;;;;;;;15.57;11.70;;;;;;;;;;5070441;28;20067;-74
2023/07/23 01:46:50;;;;;;;13.88;10.60;;;;;;;;;;5068873;28;20487;-69
2023/07/23 01:49:15;;;;;;;13.83;12.00;;;;;;;;;;5070030;28;20054;-69
2023/07/23 01:51:40;;;;;;;15.63;12.33;;;;;;;;;;5069131;28;20511;-69
2023/07/23 01:54:05;;;;;;;16.43;11.90;;;;;;;;;;5069874;28;20824;-69
2023/07/23 01:56:31;;;;;;;14.13;12.33;;;;;;;;;;5068589;28;20040;-69
2023/07/23 01:58:56;;;;;;;16.60;11.87;;;;;;;;;;5070118;28;20493;-69
2023/07/23 02:01:21;;;;;;;12.35;11.02;;;;;;;;;;5068590;28;20052;-69
2023/07/23 02:03:46;;;;;;;15.83;12.73;;;;;;;;;;5069655;28;20078;-69
2023/07/23 02:06:11;;;;;;;13.33;11.30;;;;;;;;;;5068874;28;20016;-68
2023/07/23 02:08:36;;;;;;;13.30;12.00;;;;;;;;;;5073929;28;20017;-68
2023/07/23 02:11:02;;;;;;;19.15;13.15;;;;;;;;;;5071907;28;20070;-68
2023/07/23 02:13:27;;;;;;;15.63;11.95;;;;;;;;;;5073380;28;20014;-68
2023/07/23 02:15:52;;;;;;;22.35;12.50;;;;;;;;;;5073121;28;20032;-68
2023/07/23 02:18:18;;;;;;;11.50;10.45;;;;;;;;;;5051220;28;20040;-68
2023/07/23 02:20:43;;;;;;;15.93;10.27;;;;;;;;;;5053778;28;20061;-68
2023/07/23 02:23:08;;;;;;;14.47;10.90;;;;;;;;;;5050575;28;20088;-68
2023/07/23 02:25:36;;;;;;;10.30;9.23;;;;;;;;;;5053704;28;20555;-68
2023/07/23 02:28:02;;;;;;;;;;;;;;;;;;5051976;28;20488;-68
2023/07/23 02:30:28;;;;;;;16.05;11.82;;;;;;;;;;5053594;28;19920;-68
2023/07/23 02:32:53;;;;;;;11.98;9.68;;;;;;;;;;5052079;28;20040;-67
2023/07/23 02:35:18;;;;;;;12.70;10.60;;;;;;;;;;5052797;28;20069;-67
2023/07/23 02:37:43;;;;;;;13.35;9.75;;;;;;;;;;5051965;28;20051;-68
2023/07/23 02:40:08;;;;;;;14.03;11.97;;;;;;;;;;5053084;28;20046;-68
2023/07/23 02:42:33;;;;;;;15.45;10.85;;;;;;;;;;5051351;28;20448;-68
2023/07/23 02:44:59;;;;;;;21.13;12.43;;;;;;;;;;5053348;28;20025;-68
2023/07/23 02:47:24;;;;;;;15.48;11.55;;;;;;;;;;5051718;28;20044;-69
2023/07/23 02:49:49;;;;;;;15.87;10.77;;;;;;;;;;5051417;28;20472;-69
2023/07/23 02:52:15;;;;;;;11.90;10.65;;;;;;;;;;5051560;28;20443;-68
2023/07/23 02:54:42;;;;;;;16.88;10.25;;;;;;;;;;5053100;28;20555;-68
2023/07/23 02:57:07;;;;;;;15.35;10.00;;;;;;;;;;5051199;28;20029;-68
2023/07/23 02:59:32;;;;;;;12.32;10.48;;;;;;;;;;5052967;28;20051;-68
2023/07/23 03:01:57;;;;;;;12.77;11.40;;;;;;;;;;5051518;28;20385;-68
2023/07/23 03:04:26;;;;;;;15.13;11.00;;;;;;;;;;5052243;28;20056;-68
2023/07/23 03:06:51;;;;;;;19.05;10.82;;;;;;;;;;5051739;28;20128;-68
2023/07/23 03:09:16;;;;;;;11.53;9.23;;;;;;;;;;5052377;28;20099;-69
2023/07/23 03:11:41;;;;;;;17.63;12.80;;;;;;;;;;5051065;28;20029;-69
2023/07/23 03:14:06;;;;;;;15.52;11.45;;;;;;;;;;5052378;28;20048;-69
2023/07/23 03:16:31;;;;;;;16.43;11.77;;;;;;;;;;5049823;28;20041;-69
2023/07/23 03:18:57;;;;;;;18.58;11.43;;;;;;;;;;5051601;28;20033;-69
2023/07/23 03:21:22;;;;;;;13.55;10.75;;;;;;;;;;5051028;28;20037;-68
2023/07/23 03:23:47;;;;;;;14.48;10.82;;;;;;;;;;5052576;28;20048;-67
2023/07/23 03:26:12;;;;;;;15.70;10.30;;;;;;;;;;5048795;28;20021;-66
2023/07/23 03:28:38;;;;;;;14.25;9.80;;;;;;;;;;5052417;28;20028;-67
2023/07/23 03:31:03;;;;;;;15.47;8.93;;;;;;;;;;5050031;28;20059;-66
2023/07/23 03:33:28;;;;;;;12.38;9.27;;;;;;;;;;5051398;28;20021;-67
2023/07/23 03:35:53;;;;;;;14.73;9.97;;;;;;;;;;5051847;28;20067;-66
2023/07/23 03:38:18;;;;;;;16.75;8.23;;;;;;;;;;5049733;28;20064;-67
2023/07/23 03:40:43;;;;;;;11.07;8.80;;;;;;;;;;5051846;28;20020;-67
2023/07/23 03:43:08;;;;;;;15.63;9.13;;;;;;;;;;5050429;28;20033;-67
2023/07/23 03:45:34;;;;;;;8.70;7.80;;;;;;;;;;5052496;28;20021;-67
2023/07/23 03:47:59;;;;;;;12.07;8.57;;;;;;;;;;5050385;28;20453;-67
2023/07/23 03:50:24;;;;;;;13.77;8.30;;;;;;;;;;5051854;28;20031;-67
2023/07/23 03:52:49;;;;;;;11.40;10.25;;;;;;;;;;5050513;28;20040;-66
2023/07/23 03:55:14;;;;;;;17.40;10.85;;;;;;;;;;5050060;28;20021;-67
2023/07/23 03:57:39;;;;;;;14.67;8.90;;;;;;;;;;5050038;28;20037;-67
2023/07/23 04:00:05;;;;;;;12.30;9.55;;;;;;;;;;5051591;28;20506;-67
2023/07/23 04:02:31;;;;;;;11.43;9.55;;;;;;;;;;5049077;28;20033;-66
2023/07/23 04:04:56;;;;;;;18.50;11.23;;;;;;;;;;5051241;28;20521;-66
2023/07/23 04:07:21;;;;;;;10.32;8.38;;;;;;;;;;5049455;28;20107;-66
2023/07/23 04:09:46;;;;;;;11.63;8.95;;;;;;;;;;5050975;28;20025;-67
2023/07/23 04:12:11;;;;;;;13.60;9.13;;;;;;;;;;5049353;28;20060;-67
2023/07/23 04:14:42;;;;;;;12.85;9.60;;;;;;;;;;5050997;28;20502;-65
2023/07/23 04:17:07;;;;;;;10.68;9.05;;;;;;;;;;5052392;28;20491;-66
2023/07/23 04:19:33;;;;;;;21.40;9.73;;;;;;;;;;5046544;28;20029;-66
2023/07/23 04:21:58;;;;;;;13.07;9.70;;;;;;;;;;5050031;28;20541;-66
2023/07/23 04:24:23;;;;;;;13.45;9.82;;;;;;;;;;5070046;28;20036;-66
2023/07/23 04:26:48;;;;;;;16.73;9.40;;;;;;;;;;5069919;28;20044;-66
2023/07/23 04:29:13;;;;;;;12.02;8.13;;;;;;;;;;5068633;28;20050;-71
2023/07/23 04:31:38;;;;;;;15.55;9.48;;;;;;;;;;5068203;28;20040;-65
2023/07/23 04:34:04;;;;;;;10.98;7.97;;;;;;;;;;5070150;28;20066;-65
2023/07/23 04:36:29;;;;;;;10.98;7.80;;;;;;;;;;5069076;28;20445;-65
2023/07/23 04:38:54;;;;;;;13.00;9.47;;;;;;;;;;5069398;28;20020;-66
2023/07/23 04:41:19;;;;;;;12.70;10.33;;;;;;;;;;5068464;28;20483;-65
2023/07/23 04:43:44;;;;;;;9.17;8.03;;;;;;;;;;5053580;28;20593;-66
2023/07/23 04:46:09;;;;;;;15.48;9.45;;;;;;;;;;5047746;28;20075;-66
2023/07/23 04:48:36;;;;;;;12.82;9.07;;;;;;;;;;5050341;28;20480;-66
2023/07/23 04:51:03;;;;;;;11.85;7.93;;;;;;;;;;5059005;28;20082;-65
2023/07/23 04:53:28;;;;;;;10.30;9.20;;;;;;;;;;5069722;28;20013;-66
2023/07/23 04:55:54;;;;;;;12.43;9.07;;;;;;;;;;5070122;28;20048;-66
2023/07/23 04:58:20;;;;;;;12.23;7.15;;;;;;;;;;5067770;28;20081;-66
2023/07/23 05:00:45;;;;;;;21.48;9.90;;;;;;;;;;5069411;28;20017;-66
2023/07/23 05:03:11;;;;;;;11.02;8.85;;;;;;;;;;5068516;28;20033;-66
2023/07/23 05:05:36;;;;;;;10.40;8.55;;;;;;;;;;5070497;28;20064;-66
2023/07/23 05:08:01;;;;;;;14.90;8.05;;;;;;;;;;5067792;28;20052;-66
2023/07/23 05:10:27;;;;;;;14.57;8.67;;;;;;;;;;5069777;28;20032;-66
2023/07/23 05:12:52;;;;;;;10.35;7.78;;;;;;;;;;5064140;28;20115;-67
2023/07/23 05:15:17;;;;;;;10.83;8.00;;;;;;;;;;5068385;28;20027;-66
2023/07/23 05:17:42;;;;;;;14.47;10.07;;;;;;;;;;5048849;28;20471;-66
2023/07/23 05:20:08;;;;;;;12.47;8.83;;;;;;;;;;5065374;28;20024;-67
2023/07/23 05:22:37;;;;;;;10.60;7.68;;;;;;;;;;5067826;28;20040;-67
2023/07/23 05:25:03;;;;;;;9.27;8.30;;;;;;;;;;5069589;28;20032;-69
2023/07/23 05:27:28;;;;;;;9.32;7.35;;;;;;;;;;5068126;28;20427;-68
2023/07/23 05:29:54;;;;;;;12.10;7.63;;;;;;;;;;5068919;28;20511;-68
2023/07/23 05:32:19;;;;;;;10.83;7.00;;;;;;;;;;5066208;28;20447;-69
2023/07/23 05:34:44;;;;;;;12.93;8.40;;;;;;;;;;5069436;28;20439;-69
2023/07/23 05:37:09;;;;;;;11.20;6.10;;;;;;;;;;5067431;28;21012;-68
2023/07/23 05:39:34;;;;;;;17.97;7.47;;;;;;;;;;5067838;28;20025;-68
2023/07/23 05:42:00;;;;;;;12.55;8.52;;;;;;;;;;5069970;28;20039;-68
2023/07/23 05:44:25;;;;;;;8.93;5.95;;;;;;;;;;5063340;28;20028;-68
2023/07/23 05:46:50;;;;;;;9.40;6.50;;;;;;;;;;5059521;28;20142;-68
2023/07/23 05:49:15;;;;;;;9.37;6.10;;;;;;;;;;5073418;28;20056;-68
2023/07/23 05:51:41;;;;;;;8.93;6.47;;;;;;;;;;5072569;28;20040;-68
2023/07/23 05:54:06;;;;;;;14.80;6.13;;;;;;;;;;5072028;28;20104;-66
2023/07/23 05:56:31;;;;;;;10.82;6.28;;;;;;;;;;5072279;28;20029;-66
2023/07/23 05:58:56;;;;;;;7.78;6.15;;;;;;;;;;5063407;28;20041;-67
2023/07/23 06:01:22;;;;;;;10.87;5.53;;;;;;;;;;5057187;28;20041;-71
2023/07/23 06:03:47;;;;;;;11.00;6.37;;;;;;;;;;5073049;28;20055;-70
2023/07/23 06:06:12;;;;;;;13.63;6.95;;;;;;;;;;5071434;28;20021;-71
2023/07/23 06:08:37;;;;;;;10.52;6.68;;;;;;;;;;5072010;28;20588;-72
2023/07/23 06:11:02;;;;;;;8.68;5.15;;;;;;;;;;5061813;28;20032;-70
2023/07/23 06:13:27;;;;;;;12.68;6.72;;;;;;;;;;5052200;28;20010;-70
2023/07/23 06:15:52;;;;;;;9.77;5.83;;;;;;;;;;5052021;28;20611;-69
2023/07/23 06:18:18;;;;;;;5.37;4.67;;;;;;;;;;5063719;28;20119;-70
2023/07/23 06:20:43;;;;;;;12.80;6.27;;;;;;;;;;5072636;28;20439;-70
2023/07/23 06:23:08;;;;;;;11.43;7.05;;;;;;;;;;5070013;28;20033;-70
2023/07/23 06:25:33;;;;;;;8.65;5.05;;;;;;;;;;5073311;28;20138;-70
2023/07/23 06:27:58;;;;;;;8.60;6.03;;;;;;;;;;5071578;28;20040;-70
2023/07/23 06:30:23;;;;;;;8.53;6.53;;;;;;;;;;5071434;28;20032;-70
2023/07/23 06:32:48;;;;;;;6.63;4.90;;;;;;;;;;5071478;28;20033;-70
2023/07/23 06:35:14;;;;;;;7.60;5.67;;;;;;;;;;5072676;28;20068;-70
2023/07/23 06:37:40;;;;;;;7.00;5.40;;;;;;;;;;5068310;28;20055;-70
2023/07/23 06:40:06;;;;;;;6.78;5.07;;;;;;;;;;5071722;28;20020;-70
2023/07/23 06:42:31;;;;;;;6.35;5.68;;;;;;;;;;5069738;28;20041;-70
2023/07/23 06:44:56;;;;;;;7.83;6.40;;;;;;;;;;5051718;28;20051;-69
2023/07/23 06:47:21;;;;;;;8.60;6.07;;;;;;;;;;5051217;28;20513;-69
2023/07/23 06:49:47;;;;;;;7.77;4.50;;;;;;;;;;5056506;28;20395;-69
2023/07/23 06:52:12;;;;;;;7.65;6.88;;;;;;;;;;5068405;28;20496;-69
2023/07/23 06:54:40;;;;;;;8.53;4.83;;;;;;;;;;5069088;28;20025;-70
2023/07/23 06:57:06;;;;;;;6.50;3.92;;;;;;;;;;5069671;28;20078;-68
2023/07/23 06:59:31;;;;;;;10.48;5.47;;;;;;;;;;5070218;28;20479;-68
2023/07/23 07:01:56;;;;;;;5.00;4.60;;;;;;;;;;5070843;28;20037;-68
2023/07/23 07:04:22;;;;;;;9.60;7.22;;;;;;;;;;5071746;28;20414;-68
2023/07/23 07:06:47;;;;;;;8.80;6.22;;;;;;;;;;5070053;28;20036;-67
2023/07/23 07:09:12;;;;;;;10.55;5.85;;;;;;;;;;5072074;28;20107;-67
2023/07/23 07:11:37;;;;;;;11.13;4.40;;;;;;;;;;5069387;28;20116;-68
2023/07/23 07:14:03;;;;;;;11.37;5.63;;;;;;;;;;5071009;28;20463;-69
2023/07/23 07:16:28;;;;;;;9.65;4.50;;;;;;;;;;5070345;28;20116;-68
2023/07/23 07:18:53;;;;;;;11.60;5.13;;;;;;;;;;5072179;28;20020;-67
2023/07/23 07:21:19;;;;;;;21.63;5.90;;;;;;;;;;5068582;28;20087;-67
2023/07/23 07:23:44;;;;;;;6.73;4.67;;;;;;;;;;5071365;28;20027;-68
2023/07/23 07:26:09;;;;;;;12.55;5.45;;;;;;;;;;5068619;28;20502;-67
2023/07/23 07:28:34;;;;;;;10.57;5.60;;;;;;;;;;5050922;28;20589;-68
2023/07/23 07:31:00;;;;;;;12.85;6.00;;;;;;;;;;5050205;28;20063;-67
2023/07/23 07:33:27;;;;;;;8.60;5.55;;;;;;;;;;5072191;28;20422;-68
2023/07/23 07:35:53;;;;;;;7.13;5.72;;;;;;;;;;5069345;28;20049;-68
2023/07/23 07:38:18;;;;;;;6.03;5.43;;;;;;;;;;5067838;28;20047;-68
2023/07/23 07:40:43;;;;;;;11.00;5.07;;;;;;;;;;5071332;28;20021;-68
2023/07/23 07:43:09;;;;;;;7.73;6.17;;;;;;;;;;5068619;28;20032;-68
2023/07/23 07:45:34;;;;;;;6.65;5.82;;;;;;;;;;5071256;28;20017;-68
2023/07/23 07:47:59;;;;;;;8.02;6.57;;;;;;;;;;5070045;28;20373;-73
2023/07/23 07:50:25;;;;;;;11.50;6.32;;;;;;;;;;5065682;28;20487;-66
2023/07/23 07:52:50;;;;;;;10.57;5.38;;;;;;;;;;5068373;28;20075;-68
2023/07/23 07:55:15;;;;;;;18.85;7.40;;;;;;;;;;5070941;28;20020;-66
2023/07/23 07:57:40;;;;;;;7.47;6.03;;;;;;;;;;5069693;28;20032;-67
2023/07/23 08:00:07;;;;;;;9.48;7.07;;;;;;;;;;5069429;28;20450;-66
2023/07/23 08:02:33;;;;;;;9.32;6.45;;;;;;;;;;5060430;28;20079;-66
2023/07/23 08:04:58;;;;;;;8.10;6.38;;;;;;;;;;5053593;28;20044;-67
2023/07/23 08:07:24;;;;;;;12.65;7.72;;;;;;;;;;5051129;28;20052;-67
2023/07/23 08:09:52;;;;;;;10.35;7.40;;;;;;;;;;5058020;28;20108;-67
2023/07/23 08:12:18;;;;;;;8.40;6.93;;;;;;;;;;5068653;28;20499;-66
2023/07/23 08:14:44;;;;;;;6.85;6.00;;;;;;;;;;5068546;28;20036;-66
2023/07/23 08:17:09;;;;;;;9.55;6.65;;;;;;;;;;5068788;28;20094;-66
2023/07/23 08:19:34;;;;;;;13.25;8.35;;;;;;;;;;5069412;28;20487;-67
2023/07/23 08:22:00;;;;;;;11.52;6.63;;;;;;;;;;5060777;28;20074;-67
2023/07/23 08:24:25;;;;;;;10.35;7.75;;;;;;;;;;5045968;28;20388;-68
2023/07/23 08:26:52;;;;;;;7.00;6.30;;;;;;;;;;5036972;28;20066;-66
2023/07/23 08:29:19;;;;;;;9.48;7.82;;;;;;;;;;5050490;28;20017;-66
2023/07/23 08:31:45;;;;;;;9.73;7.10;;;;;;;;;;5067515;28;20039;-66
2023/07/23 08:34:10;;;;;;;10.00;6.90;;;;;;;;;;5070092;28;20028;-65
2023/07/23 08:36:36;;;;;;;8.98;6.63;;;;;;;;;;5063352;28;20041;-65
2023/07/23 08:39:01;;;;;;;10.13;6.78;;;;;;;;;;5070483;28;20104;-68
2023/07/23 08:41:49;;;;;;;11.18;7.43;;;;;;;;;;5038986;28;20443;-66
2023/07/23 08:44:32;;;;;;;9.55;7.15;;;;;;;;;;5059230;28;20028;-66
2023/07/23 08:47:08;;;;;;;7.85;6.50;;;;;;;;;;5069121;28;20048;-67
2023/07/23 08:49:33;;;;;;;10.02;7.43;;;;;;;;;;5070328;28;20094;-67
2023/07/23 08:51:59;;;;;;;10.48;7.95;;;;;;;;;;5068948;28;20124;-67
2023/07/23 08:54:24;;;;;;;7.90;7.10;;;;;;;;;;5068885;28;20020;-68
2023/07/23 08:56:49;;;;;;;13.02;9.85;;;;;;;;;;5062129;28;20087;-67
2023/07/23 08:59:14;;;;;;;8.35;7.38;;;;;;;;;;5068916;28;20021;-68
2023/07/23 09:01:40;;;;;;;10.20;7.30;;;;;;;;;;5068660;28;20128;-66
2023/07/23 09:04:07;;;;;;;10.07;8.05;;;;;;;;;;5068106;28;20133;-67
2023/07/23 09:06:33;;;;;;;12.68;8.88;;;;;;;;;;5068442;28;20037;-69
2023/07/23 09:09:03;;;;;;;13.27;7.75;;;;;;;;;;5069432;28;20031;-70
2023/07/23 09:11:28;;;;;;;15.30;9.65;;;;;;;;;;5068260;28;20044;-67
2023/07/23 09:13:56;;;;;;;12.25;7.80;;;;;;;;;;5068182;28;20025;-68
2023/07/23 09:16:24;;;;;;;10.25;8.45;;;;;;;;;;5062130;28;20036;-65
2023/07/23 09:18:50;;;;;;;11.35;8.68;;;;;;;;;;5070423;28;20024;-67
2023/07/23 09:21:27;;;;;;;10.63;8.27;;;;;;;;;;5068414;28;20033;-67
2023/07/23 09:23:53;;;;;;;8.43;7.63;;;;;;;;;;5056120;28;20025;-66
2023/07/23 09:26:19;;;;;;;11.50;6.60;;;;;;;;;;5068771;28;20116;-66
2023/07/23 09:28:44;;;;;;;8.23;7.45;;;;;;;;;;5052513;28;20099;-67
2023/07/23 09:31:10;;;;;;;18.60;8.33;;;;;;;;;;5050962;28;20630;-67
2023/07/23 09:33:35;;;;;;;9.32;7.15;;;;;;;;;;5069394;28;20462;-67
2023/07/23 09:36:02;;;;;;;16.10;8.80;;;;;;;;;;5067083;28;20120;-66
2023/07/23 09:38:28;;;;;;;8.05;7.22;;;;;;;;;;5049587;28;20025;-67
2023/07/23 09:40:54;;;;;;;9.02;7.55;;;;;;;;;;5048729;28;20599;-66
2023/07/23 09:43:20;;;;;;;6.63;6.05;;;;;;;;;;5046268;28;20156;-66
2023/07/23 09:45:46;;;;;;;9.73;6.72;;;;;;;;;;5049996;28;20017;-70
2023/07/23 09:48:13;;;;;;;7.40;5.63;;;;;;;;;;5047275;28;20033;-66
2023/07/23 09:50:39;;;;;;;7.95;5.82;;;;;;;;;;5049169;28;20025;-67
2023/07/23 09:53:07;;;;;;;23.87;10.33;;;;;;;;;;5048116;28;20086;-67
2023/07/23 09:55:32;;;;;;;;;;;;;;;;;;5050255;28;20434;-66
2023/07/23 09:57:58;;;;;;;7.80;6.32;;;;;;;;;;5045416;28;19913;-66
2023/07/23 10:00:24;;;;;;;8.23;5.97;;;;;;;;;;5047660;28;20527;-67
2023/07/23 10:02:49;;;;;;;6.47;5.85;;;;;;;;;;5042941;28;20082;-66
2023/07/23 10:05:18;;;;;;;5.30;4.72;;;;;;;;;;5043397;28;20634;-67
2023/07/23 10:07:44;;;;;;;6.00;5.10;;;;;;;;;;5054155;28;20376;-68
2023/07/23 10:10:09;;;;;;;19.13;6.18;;;;;;;;;;5069028;28;20020;-69
2023/07/23 10:12:34;;;;;;;6.93;4.97;;;;;;;;;;5067295;28;20059;-68
2023/07/23 10:15:00;;;;;;;7.80;6.20;;;;;;;;;;5069459;28;20449;-66
2023/07/23 10:17:28;;;;;;;6.93;4.90;;;;;;;;;;5066615;28;20494;-67
2023/07/23 10:19:53;;;;;;;5.82;4.82;;;;;;;;;;5069147;28;20475;-68
2023/07/23 10:22:21;;;;;;;5.70;5.07;;;;;;;;;;5068252;28;20032;-70
2023/07/23 10:24:50;;;;;;;7.03;5.20;;;;;;;;;;5068858;28;20444;-68
2023/07/23 10:27:16;;;;;;;6.68;6.07;;;;;;;;;;5064399;28;20550;-67
2023/07/23 10:29:41;;;;;;;6.30;5.57;;;;;;;;;;5072798;28;20507;-68
2023/07/23 10:32:22;;;;;;;5.45;4.95;;;;;;;;;;5070632;28;20040;-67
2023/07/23 10:34:48;;;;;;;5.93;5.28;;;;;;;;;;5072517;28;20019;-67
2023/07/23 10:37:14;;;;;;;5.25;4.38;;;;;;;;;;5071293;28;20048;-68
2023/07/23 10:39:40;;;;;;;6.07;5.47;;;;;;;;;;5070593;28;20035;-68
2023/07/23 10:42:05;;;;;;;5.07;4.13;;;;;;;;;;5068429;28;20045;-67
2023/07/23 10:44:30;;;;;;;6.63;4.47;;;;;;;;;;5070566;28;20025;-67
2023/07/23 10:46:57;;;;;;;7.10;4.50;;;;;;;;;;5069642;28;20044;-66
2023/07/23 10:49:23;;;;;;;4.18;3.35;;;;;;;;;;5071913;28;20020;-66
2023/07/23 10:51:50;;;;;;;8.05;4.35;;;;;;;;;;5070194;28;20411;-67
2023/07/23 10:54:16;;;;;;;4.00;3.70;;;;;;;;;;5071334;28;20154;-66
2023/07/23 10:56:43;;;;;;;18.00;5.65;;;;;;;;;;5070624;28;20124;-67
2023/07/23 10:59:09;;;;;;;6.07;3.58;;;;;;;;;;5072150;28;20027;-69
2023/07/23 11:01:36;;;;;;;3.50;3.20;;;;;;;;;;5070720;28;20384;-67
2023/07/23 11:04:06;;;;;;;5.22;3.97;;;;;;;;;;5071814;28;20384;-67
2023/07/23 11:06:32;;;;;;;5.18;3.10;;;;;;;;;;5070889;28;20043;-67
2023/07/23 11:08:58;;;;;;;3.67;3.10;;;;;;;;;;5071468;28;20036;-67
2023/07/23 11:11:42;;;;;;;7.05;4.03;;;;;;;;;;5070348;28;20040;-67
2023/07/23 11:14:20;;;;;;;7.57;4.95;;;;;;;;;;5072264;28;20099;-67
2023/07/23 11:16:46;;;;;;;3.00;2.67;;;;;;;;;;5070880;28;20406;-67
2023/07/23 11:19:12;;;;;;;3.58;3.30;;;;;;;;;;5071935;28;20032;-67
2023/07/23 11:21:44;;;;;;;3.38;3.00;;;;;;;;;;5070869;28;20372;-67
2023/07/23 11:24:09;;;;;;;3.38;3.08;;;;;;;;;;5070874;28;20027;-67
2023/07/23 11:26:34;;;;;;;3.00;2.80;;;;;;;;;;5070247;28;20032;-66
2023/07/23 11:28:59;;;;;;;3.80;3.30;;;;;;;;;;5071905;28;20536;-67
2023/07/23 11:31:25;;;;;;;2.93;2.73;;;;;;;;;;5070084;28;20510;-67
2023/07/23 11:33:50;;;;;;;3.15;2.95;;;;;;;;;;5071579;28;20056;-67
2023/07/23 11:36:16;;;;;;;2.83;2.63;;;;;;;;;;5071500;28;20090;-67
2023/07/23 11:38:42;;;;;;;3.30;3.08;;;;;;;;;;5068009;28;20025;-67
2023/07/23 11:41:07;;;;;;;3.23;2.60;;;;;;;;;;5070782;28;20035;-67
2023/07/23 11:43:32;;;;;;;3.20;3.00;;;;;;;;;;5070102;28;20399;-72
2023/07/23 11:45:57;;;;;;;2.70;2.47;;;;;;;;;;5071616;28;20016;-67
2023/07/23 11:48:23;;;;;;;4.53;2.27;;;;;;;;;;5069149;28;20856;-67
2023/07/23 11:50:49;;;;;;;2.57;2.37;;;;;;;;;;5071985;28;20131;-68
2023/07/23 11:53:29;;;;;;;2.10;1.90;;;;;;;;;;5068800;28;20068;-68
2023/07/23 11:55:54;;;;;;;3.60;1.95;;;;;;;;;;5070936;28;20103;-68
2023/07/23 11:58:19;;;;;;;3.90;2.73;;;;;;;;;;5069533;28;20151;-68
2023/07/23 12:00:49;;;;;;;3.77;2.00;;;;;;;;;;5071724;28;20122;-68
2023/07/23 12:03:14;;;;;;;2.45;2.25;;;;;;;;;;5069538;28;20069;-68
2023/07/23 12:05:39;;;;;;;2.22;2.13;;;;;;;;;;5071757;28;20095;-67
2023/07/23 12:08:05;;;;;;;2.45;2.25;;;;;;;;;;5069366;28;20040;-68
2023/07/23 12:10:31;;;;;;;2.45;2.25;;;;;;;;;;5069973;28;20047;-68
2023/07/23 12:12:56;;;;;;;6.78;3.38;;;;;;;;;;5069727;28;20495;-68
2023/07/23 12:15:21;;;;;;;3.13;2.83;;;;;;;;;;5070828;28;20089;-68
2023/07/23 12:17:49;;;;;;;4.20;3.80;;;;;;;;;;5069367;28;20391;-68
2023/07/23 12:20:15;;;;;;;3.00;2.80;;;;;;;;;;5070927;28;20159;-68
2023/07/23 12:22:50;;;;;;;3.90;2.85;;;;;;;;;;5069935;28;20037;-69
2023/07/23 12:25:15;;;;;;;2.60;2.40;;;;;;;;;;5070765;28;20070;-68
2023/07/23 12:27:40;;;;;;;3.05;2.80;;;;;;;;;;5069855;28;20041;-68
2023/07/23 12:30:06;;;;;;;3.07;2.80;;;;;;;;;;5071000;28;20110;-68
2023/07/23 12:32:31;;;;;;;3.65;3.35;;;;;;;;;;5069572;28;20037;-68
2023/07/23 12:34:56;;;;;;;3.35;3.05;;;;;;;;;;5071072;28;20016;-68
2023/07/23 12:37:22;;;;;;;7.13;3.67;;;;;;;;;;5068211;28;20036;-68
2023/07/23 12:39:47;;;;;;;3.05;2.83;;;;;;;;;;5071218;28;20101;-68
2023/07/23 12:42:14;;;;;;;5.10;4.23;;;;;;;;;;5069087;28;20041;-68
2023/07/23 12:44:39;;;;;;;4.10;3.70;;;;;;;;;;5071173;28;20431;-68
2023/07/23 12:47:04;;;;;;;5.97;4.43;;;;;;;;;;5069416;28;20161;-68
2023/07/23 12:49:29;;;;;;;3.47;3.17;;;;;;;;;;5071032;28;20076;-68
2023/07/23 12:51:54;;;;;;;3.83;3.53;;;;;;;;;;5069663;28;20032;-68
2023/07/23 12:54:19;;;;;;;4.23;3.90;;;;;;;;;;5070854;28;20021;-68
2023/07/23 12:56:45;;;;;;;5.05;4.05;;;;;;;;;;5069196;28;20403;-69
2023/07/23 12:59:10;;;;;;;4.37;3.97;;;;;;;;;;5070605;28;20070;-68
2023/07/23 13:01:35;;;;;;;3.33;3.03;;;;;;;;;;5069710;28;20491;-68
2023/07/23 13:04:00;;;;;;;3.85;3.45;;;;;;;;;;5070255;28;20272;-68
2023/07/23 13:06:25;;;;;;;4.90;4.50;;;;;;;;;;5069718;28;20047;-68
2023/07/23 13:08:51;;;;;;;5.33;4.67;;;;;;;;;;5070958;28;20418;-68
2023/07/23 13:11:16;;;;;;;4.28;3.75;;;;;;;;;;5068393;28;20480;-67
2023/07/23 13:13:41;;;;;;;6.57;3.97;;;;;;;;;;5071130;28;20025;-68
2023/07/23 13:16:08;;;;;;;9.07;4.55;;;;;;;;;;5068971;28;20017;-67
2023/07/23 13:18:33;;;;;;;5.15;4.65;;;;;;;;;;5070830;28;20182;-68
2023/07/23 13:20:58;;;;;;;3.88;3.47;;;;;;;;;;5068797;28;20520;-67
2023/07/23 13:23:24;;;;;;;4.37;3.80;;;;;;;;;;5069804;28;20017;-68
2023/07/23 13:25:50;;;;;;;6.47;3.53;;;;;;;;;;5068397;28;20454;-68
2023/07/23 13:28:15;;;;;;;6.45;3.65;;;;;;;;;;5068479;28;20033;-74
2023/07/23 13:30:40;;;;;;;4.90;3.87;;;;;;;;;;5069889;28;20069;-68
2023/07/23 13:33:06;;;;;;;4.70;4.13;;;;;;;;;;5066605;28;20467;-68
2023/07/23 13:35:31;;;;;;;8.88;5.43;;;;;;;;;;5070028;28;20120;-68
2023/07/23 13:37:56;;;;;;;3.78;3.22;;;;;;;;;;5068564;28;20067;-68
2023/07/23 13:40:21;;;;;;;3.97;3.63;;;;;;;;;;5069274;28;20021;-68
2023/07/23 13:42:46;;;;;;;4.00;3.63;;;;;;;;;;5068586;28;20474;-68
2023/07/23 13:45:12;;;;;;;4.67;4.20;;;;;;;;;;5069851;28;20425;-68
2023/07/23 13:47:37;;;;;;;17.05;4.18;;;;;;;;;;5068243;28;21065;-68
2023/07/23 13:50:03;;;;;;;6.97;4.47;;;;;;;;;;5069468;28;20021;-68
2023/07/23 13:52:28;;;;;;;9.02;3.60;;;;;;;;;;5068563;28;20040;-68
2023/07/23 13:54:53;;;;;;;4.95;4.45;;;;;;;;;;5068014;28;20055;-68
2023/07/23 13:57:18;;;;;;;6.90;4.38;;;;;;;;;;5066908;28;20358;-68
2023/07/23 13:59:44;;;;;;;8.35;4.40;;;;;;;;;;5069782;28;20028;-68
2023/07/23 14:02:09;;;;;;;5.10;4.70;;;;;;;;;;5067887;28;20113;-68
2023/07/23 14:04:34;;;;;;;4.77;4.03;;;;;;;;;;5073659;28;20528;-68
2023/07/23 14:06:59;;;;;;;3.97;3.30;;;;;;;;;;5072153;28;20525;-68
2023/07/23 14:09:24;;;;;;;4.03;3.63;;;;;;;;;;5072848;28;20545;-68
2023/07/23 14:11:50;;;;;;;4.03;3.57;;;;;;;;;;5070850;28;20028;-69
2023/07/23 14:14:15;;;;;;;5.17;4.77;;;;;;;;;;5073169;28;20407;-68
2023/07/23 14:16:40;;;;;;;4.80;3.17;;;;;;;;;;5071539;28;20028;-69
2023/07/23 14:19:05;;;;;;;5.50;4.05;;;;;;;;;;5072862;28;20103;-68
2023/07/23 14:21:30;;;;;;;17.00;4.45;;;;;;;;;;5072020;28;20422;-69
2023/07/23 14:23:56;;;;;;;8.35;4.63;;;;;;;;;;5072851;28;20095;-69